CheckWX is a tool to help pilots better visualize weather data.  It is not intended as a substitute for an official pre-flight weather briefing.

14:20:03 UTC

KLTS METAR
Altus AFB Airport
Altus, Oklahoma, USA
Current

24 mins ago

KLTS 211356Z 02016G22KT 10SM CLR 07/04 A3003 RMK AO2A SLP167 T00690040 $
Observed
Nov-21 @ 13:56 UTC
Wind
  • 020° at 16 KTS
  • Gusting to 22 KTS
Visibility
10 SM
Flight Rules
VFR
Cloud Levels
  • Clear skies
Temperature
C / 45°F
Dewpoint
C / 39°F
Humidity
81%
Altimeter
30.03" Hg
Pressure
1016.92 hPa
Previous

1 hour ago

KLTS 211256Z 01012G18KT 10SM CLR 07/05 A2999 RMK AO2A SLP152 T00710051 $
Observed
Nov-21 @ 12:56 UTC
Wind
  • 010° at 12 KTS
  • Gusting to 18 KTS
Visibility
10 SM
Flight Rules
VFR
Cloud Levels
  • Clear skies
Temperature
C / 45°F
Dewpoint
C / 41°F
Humidity
87%
Altimeter
29.99" Hg
Pressure
1015.62 hPa
Previous

2 hours ago

KLTS 211156Z 36011KT 10SM FEW010 09/09 A2996 RMK AO2A SLP141 60000 73214 T00870087 10150 20087 52027 $
Observed
Nov-21 @ 11:56 UTC
Wind
  • 360° at 11 KTS
Visibility
10 SM
Flight Rules
VFR
Cloud Levels
  • Few at 1,000' AGL
Temperature
C / 48°F
Dewpoint
C / 48°F
Humidity
100%
Altimeter
29.96" Hg
Pressure
1014.52 hPa
24 Hour Rain
32.14"